sensor_id;sensor_type;location;lat;lon;timestamp;pressure;altitude;pressure_sealevel;temperature;humidity
57234;BME280;43090;52.604;13.318;2023-04-06T00:00:08;101578.97;;;3.77;74.32
57234;BME280;43090;52.604;13.318;2023-04-06T00:02:35;101561.81;;;3.60;74.38
57234;BME280;43090;52.604;13.318;2023-04-06T00:05:02;101566.66;;;3.76;74.31
57234;BME280;43090;52.604;13.318;2023-04-06T00:07:28;101581.97;;;3.96;73.63
57234;BME280;43090;52.604;13.318;2023-04-06T00:09:56;101550.63;;;3.49;74.68
57234;BME280;43090;52.604;13.318;2023-04-06T00:12:22;101558.03;;;3.67;74.54
57234;BME280;43090;52.604;13.318;2023-04-06T00:14:49;101534.63;;;3.54;74.15
57234;BME280;43090;52.604;13.318;2023-04-06T00:17:16;101571.06;;;3.75;73.65
57234;BME280;43090;52.604;13.318;2023-04-06T00:19:42;101525.69;;;3.58;73.80
57234;BME280;43090;52.604;13.318;2023-04-06T00:22:09;101532.88;;;3.53;74.97
57234;BME280;43090;52.604;13.318;2023-04-06T00:24:36;101554.88;;;3.56;74.83
57234;BME280;43090;52.604;13.318;2023-04-06T00:27:02;101556.19;;;3.71;74.48
57234;BME280;43090;52.604;13.318;2023-04-06T00:29:29;101548.69;;;3.56;74.53
57234;BME280;43090;52.604;13.318;2023-04-06T00:31:55;101559.09;;;3.62;74.64
57234;BME280;43090;52.604;13.318;2023-04-06T00:34:22;101530.28;;;3.51;74.58
57234;BME280;43090;52.604;13.318;2023-04-06T00:36:48;101548.41;;;3.66;74.09
57234;BME280;43090;52.604;13.318;2023-04-06T00:39:15;101562.44;;;3.69;74.06
57234;BME280;43090;52.604;13.318;2023-04-06T00:41:46;101560.69;;;3.67;73.74
57234;BME280;43090;52.604;13.318;2023-04-06T00:44:15;101547.81;;;3.55;74.62
57234;BME280;43090;52.604;13.318;2023-04-06T00:46:41;101514.72;;;3.40;74.70
57234;BME280;43090;52.604;13.318;2023-04-06T00:49:08;101549.50;;;3.58;75.21
57234;BME280;43090;52.604;13.318;2023-04-06T00:51:38;101540.25;;;3.43;75.80
57234;BME280;43090;52.604;13.318;2023-04-06T00:54:04;101539.41;;;3.41;74.93
57234;BME280;43090;52.604;13.318;2023-04-06T00:56:31;101528.59;;;3.48;75.35
57234;BME280;43090;52.604;13.318;2023-04-06T00:58:58;101549.63;;;3.53;74.25
57234;BME280;43090;52.604;13.318;2023-04-06T01:01:25;101549.63;;;3.53;75.09
57234;BME280;43090;52.604;13.318;2023-04-06T01:03:52;101556.41;;;3.63;75.04
57234;BME280;43090;52.604;13.318;2023-04-06T01:06:18;101524.19;;;3.17;75.70
57234;BME280;43090;52.604;13.318;2023-04-06T01:08:45;101519.59;;;3.23;75.80
57234;BME280;43090;52.604;13.318;2023-04-06T01:11:12;101513.63;;;3.16;76.41
57234;BME280;43090;52.604;13.318;2023-04-06T01:13:38;101537.44;;;3.16;76.88
57234;BME280;43090;52.604;13.318;2023-04-06T01:16:05;101555.69;;;3.25;77.22
57234;BME280;43090;52.604;13.318;2023-04-06T01:18:32;101539.31;;;3.11;77.59
57234;BME280;43090;52.604;13.318;2023-04-06T01:20:58;101548.59;;;2.94;78.66
57234;BME280;43090;52.604;13.318;2023-04-06T01:23:25;101549.44;;;2.96;78.95
57234;BME280;43090;52.604;13.318;2023-04-06T01:25:52;101523.16;;;2.90;78.77
57234;BME280;43090;52.604;13.318;2023-04-06T01:28:18;101549.34;;;2.99;78.95
57234;BME280;43090;52.604;13.318;2023-04-06T01:30:45;101533.81;;;2.86;78.67
57234;BME280;43090;52.604;13.318;2023-04-06T01:33:12;101513.00;;;2.73;78.65
57234;BME280;43090;52.604;13.318;2023-04-06T01:51:31;101564.38;;;1.86;86.26
57234;BME280;43090;52.604;13.318;2023-04-06T01:53:58;101544.78;;;1.96;85.44
57234;BME280;43090;52.604;13.318;2023-04-06T01:56:50;101523.78;;;1.90;84.04
57234;BME280;43090;52.604;13.318;2023-04-06T01:59:19;101528.69;;;2.07;83.13
57234;BME280;43090;52.604;13.318;2023-04-06T02:01:46;101495.50;;;1.95;83.15
57234;BME280;43090;52.604;13.318;2023-04-06T02:04:12;101548.94;;;2.08;83.81
57234;BME280;43090;52.604;13.318;2023-04-06T02:06:40;101539.94;;;2.15;83.02
57234;BME280;43090;52.604;13.318;2023-04-06T02:09:07;101544.59;;;2.06;82.62
57234;BME280;43090;52.604;13.318;2023-04-06T02:11:34;101521.22;;;1.87;83.23
57234;BME280;43090;52.604;13.318;2023-04-06T02:14:05;101503.56;;;1.91;81.99
57234;BME280;43090;52.604;13.318;2023-04-06T02:16:31;101533.09;;;2.08;82.08
57234;BME280;43090;52.604;13.318;2023-04-06T02:18:58;101546.66;;;2.30;81.62
57234;BME280;43090;52.604;13.318;2023-04-06T02:21:27;101546.38;;;2.05;82.32
57234;BME280;43090;52.604;13.318;2023-04-06T02:23:54;101520.94;;;1.99;82.23
57234;BME280;43090;52.604;13.318;2023-04-06T02:26:21;101527.25;;;1.94;82.28
57234;BME280;43090;52.604;13.318;2023-04-06T02:28:47;101546.91;;;2.20;82.28
57234;BME280;43090;52.604;13.318;2023-04-06T02:31:18;101543.16;;;1.91;82.79
57234;BME280;43090;52.604;13.318;2023-04-06T02:33:44;101547.09;;;2.10;82.45
57234;BME280;43090;52.604;13.318;2023-04-06T02:36:11;101523.34;;;1.71;83.00
57234;BME280;43090;52.604;13.318;2023-04-06T02:38:38;101553.00;;;1.82;82.23
57234;BME280;43090;52.604;13.318;2023-04-06T02:41:04;101519.13;;;1.62;82.82
57234;BME280;43090;52.604;13.318;2023-04-06T02:43:31;101523.56;;;1.60;82.97
57234;BME280;43090;52.604;13.318;2023-04-06T02:45:57;101552.16;;;1.82;82.69
57234;BME280;43090;52.604;13.318;2023-04-06T02:48:24;101530.84;;;1.49;83.94
57234;BME280;43090;52.604;13.318;2023-04-06T02:50:51;101516.03;;;1.40;83.67
57234;BME280;43090;52.604;13.318;2023-04-06T02:53:18;101505.56;;;1.37;82.43
57234;BME280;43090;52.604;13.318;2023-04-06T02:55:44;101503.81;;;1.38;82.57
57234;BME280;43090;52.604;13.318;2023-04-06T02:58:11;101558.56;;;1.70;82.85
57234;BME280;43090;52.604;13.318;2023-04-06T03:00:37;101535.41;;;1.41;82.81
57234;BME280;43090;52.604;13.318;2023-04-06T03:03:25;101516.41;;;1.23;83.23
57234;BME280;43090;52.604;13.318;2023-04-06T03:06:01;101526.00;;;1.27;83.05
57234;BME280;43090;52.604;13.318;2023-04-06T03:08:31;101546.59;;;1.54;82.41
57234;BME280;43090;52.604;13.318;2023-04-06T03:14:44;101521.28;;;0.96;83.54
57234;BME280;43090;52.604;13.318;2023-04-06T03:17:37;101561.88;;;1.38;83.30
57234;BME280;43090;52.604;13.318;2023-04-06T03:20:24;101504.63;;;0.96;83.01
57234;BME280;43090;52.604;13.318;2023-04-06T03:23:29;101511.59;;;0.98;83.41
57234;BME280;43090;52.604;13.318;2023-04-06T03:26:22;101563.56;;;1.39;82.80
57234;BME280;43090;52.604;13.318;2023-04-06T03:28:57;101521.38;;;0.93;83.92
57234;BME280;43090;52.604;13.318;2023-04-06T03:31:45;101562.88;;;1.30;83.42
57234;BME280;43090;52.604;13.318;2023-04-06T03:34:12;101537.72;;;1.11;82.88
57234;BME280;43090;52.604;13.318;2023-04-06T03:40:24;101517.41;;;0.69;84.71
57234;BME280;43090;52.604;13.318;2023-04-06T03:43:12;101531.34;;;0.76;84.42
57234;BME280;43090;52.604;13.318;2023-04-06T03:49:17;101563.44;;;0.99;83.98
57234;BME280;43090;52.604;13.318;2023-04-06T03:51:49;101556.44;;;0.98;83.69
57234;BME280;43090;52.604;13.318;2023-04-06T03:54:44;101533.69;;;0.91;83.66
57234;BME280;43090;52.604;13.318;2023-04-06T03:57:29;101570.44;;;1.00;83.55
57234;BME280;43090;52.604;13.318;2023-04-06T04:06:27;101559.53;;;0.72;84.55
57234;BME280;43090;52.604;13.318;2023-04-06T04:08:57;101564.59;;;0.83;84.43
57234;BME280;43090;52.604;13.318;2023-04-06T04:11:44;101551.00;;;0.56;84.13
57234;BME280;43090;52.604;13.318;2023-04-06T04:17:12;101532.47;;;0.61;84.44
57234;BME280;43090;52.604;13.318;2023-04-06T04:19:41;101598.59;;;1.00;83.95
57234;BME280;43090;52.604;13.318;2023-04-06T04:22:08;101571.84;;;0.72;83.88
57234;BME280;43090;52.604;13.318;2023-04-06T04:24:34;101595.28;;;0.89;83.91
57234;BME280;43090;52.604;13.318;2023-04-06T04:27:01;101590.94;;;0.86;83.50
57234;BME280;43090;52.604;13.318;2023-04-06T04:29:28;101552.13;;;0.41;84.91
57234;BME280;43090;52.604;13.318;2023-04-06T04:31:54;101543.44;;;0.35;85.26
57234;BME280;43090;52.604;13.318;2023-04-06T04:34:31;101539.91;;;0.36;85.60
57234;BME280;43090;52.604;13.318;2023-04-06T04:40:09;101546.00;;;0.39;84.87
57234;BME280;43090;52.604;13.318;2023-04-06T04:43:15;101546.72;;;0.51;84.62
57234;BME280;43090;52.604;13.318;2023-04-06T04:46:01;101549.41;;;0.46;84.80
57234;BME280;43090;52.604;13.318;2023-04-06T04:51:37;101545.06;;;0.43;84.36
57234;BME280;43090;52.604;13.318;2023-04-06T04:54:26;101549.53;;;0.38;85.52
57234;BME280;43090;52.604;13.318;2023-04-06T04:56:56;101588.44;;;0.75;84.96
57234;BME280;43090;52.604;13.318;2023-04-06T05:00:01;101591.25;;;0.68;85.22
57234;BME280;43090;52.604;13.318;2023-04-06T05:02:39;101579.63;;;0.79;84.45
57234;BME280;43090;52.604;13.318;2023-04-06T05:05:20;101578.59;;;0.87;84.08
57234;BME280;43090;52.604;13.318;2023-04-06T05:07:47;101579.72;;;0.73;84.79
57234;BME280;43090;52.604;13.318;2023-04-06T05:10:16;101612.72;;;0.96;84.42
57234;BME280;43090;52.604;13.318;2023-04-06T05:12:43;101597.34;;;0.70;85.43
57234;BME280;43090;52.604;13.318;2023-04-06T05:15:13;101591.19;;;0.71;85.35
57234;BME280;43090;52.604;13.318;2023-04-06T05:17:39;101600.88;;;1.20;87.09
57234;BME280;43090;52.604;13.318;2023-04-06T05:20:06;101599.56;;;1.43;87.08
57234;BME280;43090;52.604;13.318;2023-04-06T05:22:33;101584.03;;;1.27;83.76
57234;BME280;43090;52.604;13.318;2023-04-06T05:25:01;101601.44;;;1.36;82.55
57234;BME280;43090;52.604;13.318;2023-04-06T05:27:28;101608.38;;;1.43;82.07
57234;BME280;43090;52.604;13.318;2023-04-06T05:29:55;101604.84;;;1.43;82.38
57234;BME280;43090;52.604;13.318;2023-04-06T05:32:23;101593.50;;;1.39;82.58
57234;BME280;43090;52.604;13.318;2023-04-06T05:34:51;101601.25;;;1.48;82.36
57234;BME280;43090;52.604;13.318;2023-04-06T05:37:17;101621.22;;;1.62;82.16
57234;BME280;43090;52.604;13.318;2023-04-06T05:39:44;101582.63;;;1.08;82.61
57234;BME280;43090;52.604;13.318;2023-04-06T05:42:10;101595.25;;;1.39;82.08
57234;BME280;43090;52.604;13.318;2023-04-06T05:44:37;101595.22;;;1.40;82.52
57234;BME280;43090;52.604;13.318;2023-04-06T05:47:04;101600.13;;;1.60;81.86
57234;BME280;43090;52.604;13.318;2023-04-06T05:49:34;101621.03;;;1.71;82.13
57234;BME280;43090;52.604;13.318;2023-04-06T05:52:01;101577.44;;;1.50;82.96
57234;BME280;43090;52.604;13.318;2023-04-06T05:54:27;101627.31;;;2.08;82.42
57234;BME280;43090;52.604;13.318;2023-04-06T05:56:54;101617.94;;;1.93;83.48
57234;BME280;43090;52.604;13.318;2023-04-06T05:59:20;101602.91;;;1.96;82.27
57234;BME280;43090;52.604;13.318;2023-04-06T06:01:50;101608.09;;;1.99;82.53
57234;BME280;43090;52.604;13.318;2023-04-06T06:04:22;101590.91;;;2.21;82.22
57234;BME280;43090;52.604;13.318;2023-04-06T06:07:07;101597.56;;;2.39;82.61
57234;BME280;43090;52.604;13.318;2023-04-06T06:09:34;101620.81;;;2.98;81.21
57234;BME280;43090;52.604;13.318;2023-04-06T06:12:01;101578.41;;;2.66;80.86
57234;BME280;43090;52.604;13.318;2023-04-06T06:14:31;101606.72;;;2.97;79.90
57234;BME280;43090;52.604;13.318;2023-04-06T06:16:57;101628.75;;;3.32;79.01
57234;BME280;43090;52.604;13.318;2023-04-06T06:19:24;101610.09;;;3.03;78.31
57234;BME280;43090;52.604;13.318;2023-04-06T06:21:51;101603.69;;;3.13;77.25
57234;BME280;43090;52.604;13.318;2023-04-06T06:24:17;101622.56;;;3.32;75.41
57234;BME280;43090;52.604;13.318;2023-04-06T06:26:44;101583.66;;;3.36;74.85
57234;BME280;43090;52.604;13.318;2023-04-06T06:29:11;101625.91;;;3.72;73.67
57234;BME280;43090;52.604;13.318;2023-04-06T06:31:37;101613.41;;;3.77;72.82
57234;BME280;43090;52.604;13.318;2023-04-06T06:34:04;101627.75;;;3.99;72.57
57234;BME280;43090;52.604;13.318;2023-04-06T06:36:31;101581.72;;;3.74;72.13
57234;BME280;43090;52.604;13.318;2023-04-06T06:38:58;101630.97;;;4.11;71.56
57234;BME280;43090;52.604;13.318;2023-04-06T06:41:25;101627.94;;;4.25;70.88
57234;BME280;43090;52.604;13.318;2023-04-06T06:43:52;101602.16;;;4.00;71.56
57234;BME280;43090;52.604;13.318;2023-04-06T06:46:20;101587.22;;;3.97;68.63
57234;BME280;43090;52.604;13.318;2023-04-06T06:48:47;101598.50;;;4.32;70.15
57234;BME280;43090;52.604;13.318;2023-04-06T06:51:13;101636.00;;;4.77;68.60
57234;BME280;43090;52.604;13.318;2023-04-06T06:53:40;101616.59;;;4.48;70.23
57234;BME280;43090;52.604;13.318;2023-04-06T06:56:07;101614.59;;;4.83;68.99
57234;BME280;43090;52.604;13.318;2023-04-06T06:58:37;101606.28;;;5.70;63.26
57234;BME280;43090;52.604;13.318;2023-04-06T07:01:03;101635.19;;;7.15;59.99
57234;BME280;43090;52.604;13.318;2023-04-06T07:03:34;101620.53;;;7.46;58.09
57234;BME280;43090;52.604;13.318;2023-04-06T07:06:03;101603.88;;;6.99;55.18
57234;BME280;43090;52.604;13.318;2023-04-06T07:08:30;101620.47;;;7.27;53.81
57234;BME280;43090;52.604;13.318;2023-04-06T07:10:59;101611.88;;;6.77;54.48
57234;BME280;43090;52.604;13.318;2023-04-06T07:13:26;101581.91;;;6.52;55.83
57234;BME280;43090;52.604;13.318;2023-04-06T07:15:53;101608.41;;;6.31;55.70
57234;BME280;43090;52.604;13.318;2023-04-06T07:18:20;101618.78;;;6.15;57.24
57234;BME280;43090;52.604;13.318;2023-04-06T07:20:47;101622.59;;;6.31;59.26
57234;BME280;43090;52.604;13.318;2023-04-06T07:23:13;101614.59;;;6.76;55.23
57234;BME280;43090;52.604;13.318;2023-04-06T07:25:40;101597.47;;;6.61;53.00
57234;BME280;43090;52.604;13.318;2023-04-06T07:28:10;101628.47;;;6.40;53.77
57234;BME280;43090;52.604;13.318;2023-04-06T07:30:38;101612.94;;;6.29;54.03
57234;BME280;43090;52.604;13.318;2023-04-06T07:33:05;101607.59;;;6.07;54.14
57234;BME280;43090;52.604;13.318;2023-04-06T07:35:33;101607.91;;;6.88;54.03
57234;BME280;43090;52.604;13.318;2023-04-06T07:38:01;101611.03;;;7.40;52.05
57234;BME280;43090;52.604;13.318;2023-04-06T07:40:27;101630.84;;;7.54;51.26
57234;BME280;43090;52.604;13.318;2023-04-06T07:42:54;101624.38;;;7.59;50.33
57234;BME280;43090;52.604;13.318;2023-04-06T07:45:23;101623.50;;;7.79;50.11
57234;BME280;43090;52.604;13.318;2023-04-06T07:47:49;101620.59;;;8.05;48.80
57234;BME280;43090;52.604;13.318;2023-04-06T07:50:16;101636.22;;;8.31;47.90
57234;BME280;43090;52.604;13.318;2023-04-06T07:52:43;101623.53;;;7.17;50.16
57234;BME280;43090;52.604;13.318;2023-04-06T07:55:09;101621.59;;;7.00;47.63
57234;BME280;43090;52.604;13.318;2023-04-06T07:57:36;101600.75;;;6.90;50.45
57234;BME280;43090;52.604;13.318;2023-04-06T08:00:03;101602.13;;;6.98;48.89
57234;BME280;43090;52.604;13.318;2023-04-06T08:02:33;101625.16;;;7.42;50.57
57234;BME280;43090;52.604;13.318;2023-04-06T08:05:00;101612.53;;;7.46;50.17
57234;BME280;43090;52.604;13.318;2023-04-06T08:07:27;101607.13;;;7.68;53.13
57234;BME280;43090;52.604;13.318;2023-04-06T08:09:53;101603.88;;;7.61;46.70
57234;BME280;43090;52.604;13.318;2023-04-06T08:12:20;101608.84;;;8.09;48.29
57234;BME280;43090;52.604;13.318;2023-04-06T08:14:47;101610.91;;;8.21;45.60
57234;BME280;43090;52.604;13.318;2023-04-06T08:17:14;101621.38;;;8.26;48.03
57234;BME280;43090;52.604;13.318;2023-04-06T08:19:42;101628.44;;;8.08;45.46
57234;BME280;43090;52.604;13.318;2023-04-06T08:22:10;101621.22;;;8.48;45.68
57234;BME280;43090;52.604;13.318;2023-04-06T08:24:37;101610.19;;;9.10;44.65
57234;BME280;43090;52.604;13.318;2023-04-06T08:27:06;101607.97;;;9.53;44.81
57234;BME280;43090;52.604;13.318;2023-04-06T08:29:32;101627.25;;;9.76;42.68
57234;BME280;43090;52.604;13.318;2023-04-06T08:31:59;101632.19;;;10.33;45.21
57234;BME280;43090;52.604;13.318;2023-04-06T08:34:30;101598.31;;;10.16;40.51
57234;BME280;43090;52.604;13.318;2023-04-06T08:36:56;101616.09;;;10.50;41.16
57234;BME280;43090;52.604;13.318;2023-04-06T08:39:27;101633.22;;;10.94;41.67
57234;BME280;43090;52.604;13.318;2023-04-06T08:41:57;101614.97;;;10.39;43.14
57234;BME280;43090;52.604;13.318;2023-04-06T08:44:26;101624.97;;;10.51;42.19
57234;BME280;43090;52.604;13.318;2023-04-06T08:46:52;101613.47;;;10.49;43.25
57234;BME280;43090;52.604;13.318;2023-04-06T08:49:20;101624.03;;;10.03;43.28
57234;BME280;43090;52.604;13.318;2023-04-06T08:51:47;101607.81;;;9.90;43.01
57234;BME280;43090;52.604;13.318;2023-04-06T08:54:13;101641.78;;;9.88;41.69
57234;BME280;43090;52.604;13.318;2023-04-06T08:56:40;101600.06;;;9.67;43.83
57234;BME280;43090;52.604;13.318;2023-04-06T08:59:08;101607.69;;;9.58;41.65
57234;BME280;43090;52.604;13.318;2023-04-06T09:01:39;101628.25;;;10.07;42.79
57234;BME280;43090;52.604;13.318;2023-04-06T09:04:10;101616.22;;;9.66;41.40
57234;BME280;43090;52.604;13.318;2023-04-06T09:06:39;101610.28;;;9.43;41.22
57234;BME280;43090;52.604;13.318;2023-04-06T09:09:07;101615.00;;;9.38;41.74
57234;BME280;43090;52.604;13.318;2023-04-06T09:14:09;101619.28;;;9.58;40.14
57234;BME280;43090;52.604;13.318;2023-04-06T09:19:47;101598.47;;;9.30;42.13
57234;BME280;43090;52.604;13.318;2023-04-06T09:22:14;101583.00;;;9.19;41.09
57234;BME280;43090;52.604;13.318;2023-04-06T09:24:45;101594.00;;;9.30;40.98
57234;BME280;43090;52.604;13.318;2023-04-06T09:27:13;101611.66;;;9.50;41.34
57234;BME280;43090;52.604;13.318;2023-04-06T09:29:44;101604.88;;;9.61;40.79
57234;BME280;43090;52.604;13.318;2023-04-06T09:32:11;101612.19;;;9.57;41.13
57234;BME280;43090;52.604;13.318;2023-04-06T09:34:38;101612.50;;;9.69;41.23
57234;BME280;43090;52.604;13.318;2023-04-06T09:37:15;101603.78;;;9.65;40.26
57234;BME280;43090;52.604;13.318;2023-04-06T09:39:42;101607.16;;;9.69;41.53
57234;BME280;43090;52.604;13.318;2023-04-06T09:42:08;101607.97;;;9.53;41.08
57234;BME280;43090;52.604;13.318;2023-04-06T09:44:35;101610.19;;;9.45;39.36
57234;BME280;43090;52.604;13.318;2023-04-06T09:47:05;101604.69;;;9.30;39.51
57234;BME280;43090;52.604;13.318;2023-04-06T09:49:59;101605.78;;;9.44;39.73
57234;BME280;43090;52.604;13.318;2023-04-06T09:52:31;101600.50;;;9.76;38.40
57234;BME280;43090;52.604;13.318;2023-04-06T09:55:05;101577.84;;;9.49;37.80
57234;BME280;43090;52.604;13.318;2023-04-06T10:00:29;101572.31;;;9.70;38.69
57234;BME280;43090;52.604;13.318;2023-04-06T10:05:55;101594.69;;;10.01;37.25
57234;BME280;43090;52.604;13.318;2023-04-06T10:08:27;101566.25;;;9.66;36.97
57234;BME280;43090;52.604;13.318;2023-04-06T10:10:58;101585.19;;;9.95;37.21
57234;BME280;43090;52.604;13.318;2023-04-06T10:13:31;101548.06;;;9.73;35.14
57234;BME280;43090;52.604;13.318;2023-04-06T10:15:59;101575.44;;;10.10;35.16
57234;BME280;43090;52.604;13.318;2023-04-06T10:18:29;101569.59;;;10.36;35.14
57234;BME280;43090;52.604;13.318;2023-04-06T10:21:01;101584.19;;;10.62;35.39
57234;BME280;43090;52.604;13.318;2023-04-06T10:23:35;101577.59;;;10.83;34.65
57234;BME280;43090;52.604;13.318;2023-04-06T10:26:03;101577.00;;;10.30;33.55
57234;BME280;43090;52.604;13.318;2023-04-06T10:28:34;101559.38;;;10.58;35.96
57234;BME280;43090;52.604;13.318;2023-04-06T10:31:05;101577.81;;;10.48;33.42
57234;BME280;43090;52.604;13.318;2023-04-06T10:33:32;101555.88;;;10.26;34.14
57234;BME280;43090;52.604;13.318;2023-04-06T10:36:24;101568.63;;;10.69;34.10
57234;BME280;43090;52.604;13.318;2023-04-06T10:38:59;101572.97;;;10.39;36.54
57234;BME280;43090;52.604;13.318;2023-04-06T10:41:40;101566.59;;;10.42;34.37
57234;BME280;43090;52.604;13.318;2023-04-06T10:54:56;101562.75;;;10.62;31.22
57234;BME280;43090;52.604;13.318;2023-04-06T10:57:29;101574.03;;;10.83;31.76
57234;BME280;43090;52.604;13.318;2023-04-06T10:59:57;101562.97;;;10.43;37.19
57234;BME280;43090;52.604;13.318;2023-04-06T11:02:23;101561.22;;;10.26;37.74
57234;BME280;43090;52.604;13.318;2023-04-06T11:04:57;101553.72;;;10.00;37.69
57234;BME280;43090;52.604;13.318;2023-04-06T11:07:27;101560.28;;;10.27;36.97
57234;BME280;43090;52.604;13.318;2023-04-06T11:09:56;101547.31;;;10.51;32.70
57234;BME280;43090;52.604;13.318;2023-04-06T11:12:53;101559.84;;;10.34;32.39
57234;BME280;43090;52.604;13.318;2023-04-06T11:15:20;101554.75;;;10.46;29.88
57234;BME280;43090;52.604;13.318;2023-04-06T11:17:46;101535.63;;;10.68;34.00
57234;BME280;43090;52.604;13.318;2023-04-06T11:20:13;101546.91;;;10.27;31.96
57234;BME280;43090;52.604;13.318;2023-04-06T11:22:52;101533.06;;;10.18;32.39
57234;BME280;43090;52.604;13.318;2023-04-06T11:25:19;101533.03;;;10.66;36.28
57234;BME280;43090;52.604;13.318;2023-04-06T11:27:46;101547.97;;;10.71;31.39
57234;BME280;43090;52.604;13.318;2023-04-06T11:30:14;101534.97;;;10.32;32.31
57234;BME280;43090;52.604;13.318;2023-04-06T11:32:42;101538.94;;;10.57;34.33
57234;BME280;43090;52.604;13.318;2023-04-06T11:35:20;101535.50;;;10.39;37.47
57234;BME280;43090;52.604;13.318;2023-04-06T11:37:48;101528.84;;;10.77;32.29
57234;BME280;43090;52.604;13.318;2023-04-06T11:40:22;101537.34;;;10.69;32.00
57234;BME280;43090;52.604;13.318;2023-04-06T11:43:03;101493.81;;;10.65;31.07
57234;BME280;43090;52.604;13.318;2023-04-06T11:45:44;101505.47;;;10.64;31.35
57234;BME280;43090;52.604;13.318;2023-04-06T11:48:19;101531.94;;;10.85;30.74
57234;BME280;43090;52.604;13.318;2023-04-06T11:50:46;101515.38;;;10.78;33.50
57234;BME280;43090;52.604;13.318;2023-04-06T11:53:17;101500.59;;;11.02;30.77
57234;BME280;43090;52.604;13.318;2023-04-06T11:55:44;101524.06;;;10.82;33.13
57234;BME280;43090;52.604;13.318;2023-04-06T11:58:17;101489.50;;;11.08;32.40
57234;BME280;43090;52.604;13.318;2023-04-06T12:00:44;101513.28;;;10.83;30.38
57234;BME280;43090;52.604;13.318;2023-04-06T12:03:13;101476.91;;;10.65;37.92
57234;BME280;43090;52.604;13.318;2023-04-06T12:05:40;101482.91;;;10.69;38.90
57234;BME280;43090;52.604;13.318;2023-04-06T12:08:07;101501.44;;;10.88;37.49
57234;BME280;43090;52.604;13.318;2023-04-06T12:10:33;101495.63;;;10.95;33.94
57234;BME280;43090;52.604;13.318;2023-04-06T12:13:00;101487.91;;;10.75;35.98
57234;BME280;43090;52.604;13.318;2023-04-06T12:15:26;101505.84;;;11.03;37.06
57234;BME280;43090;52.604;13.318;2023-04-06T12:17:53;101498.91;;;10.84;33.32
57234;BME280;43090;52.604;13.318;2023-04-06T12:20:19;101504.47;;;10.81;33.86
57234;BME280;43090;52.604;13.318;2023-04-06T12:22:51;101508.56;;;11.17;33.70
57234;BME280;43090;52.604;13.318;2023-04-06T12:25:18;101504.19;;;10.86;35.94
57234;BME280;43090;52.604;13.318;2023-04-06T12:27:45;101497.13;;;10.55;39.54
57234;BME280;43090;52.604;13.318;2023-04-06T12:30:11;101503.31;;;11.30;34.36
57234;BME280;43090;52.604;13.318;2023-04-06T12:32:38;101507.97;;;11.12;32.37
57234;BME280;43090;52.604;13.318;2023-04-06T12:35:05;101498.78;;;11.31;33.59
57234;BME280;43090;52.604;13.318;2023-04-06T12:37:31;101504.16;;;11.45;32.06
57234;BME280;43090;52.604;13.318;2023-04-06T12:39:58;101492.47;;;11.61;36.86
57234;BME280;43090;52.604;13.318;2023-04-06T12:42:24;101501.88;;;11.39;31.17
57234;BME280;43090;52.604;13.318;2023-04-06T12:44:51;101490.28;;;11.39;33.43
57234;BME280;43090;52.604;13.318;2023-04-06T12:47:17;101496.88;;;11.33;31.70
57234;BME280;43090;52.604;13.318;2023-04-06T12:49:44;101496.22;;;11.44;32.44
57234;BME280;43090;52.604;13.318;2023-04-06T12:52:10;101491.22;;;11.38;33.96
57234;BME280;43090;52.604;13.318;2023-04-06T12:54:37;101484.09;;;11.65;33.20
57234;BME280;43090;52.604;13.318;2023-04-06T12:57:03;101490.28;;;11.39;31.97
57234;BME280;43090;52.604;13.318;2023-04-06T12:59:30;101489.03;;;11.44;31.89
57234;BME280;43090;52.604;13.318;2023-04-06T13:02:03;101477.91;;;11.36;32.00
57234;BME280;43090;52.604;13.318;2023-04-06T13:04:30;101481.00;;;11.44;32.74
57234;BME280;43090;52.604;13.318;2023-04-06T13:06:56;101479.94;;;11.32;32.68
57234;BME280;43090;52.604;13.318;2023-04-06T13:09:23;101453.16;;;11.18;38.04
57234;BME280;43090;52.604;13.318;2023-04-06T13:11:49;101447.94;;;11.58;35.99
57234;BME280;43090;52.604;13.318;2023-04-06T13:14:16;101444.44;;;11.29;33.29
57234;BME280;43090;52.604;13.318;2023-04-06T13:16:43;101452.66;;;11.82;31.87
57234;BME280;43090;52.604;13.318;2023-04-06T13:19:09;101461.88;;;11.78;34.70
57234;BME280;43090;52.604;13.318;2023-04-06T13:21:37;101435.88;;;11.51;32.12
57234;BME280;43090;52.604;13.318;2023-04-06T13:24:03;101467.75;;;11.70;31.91
57234;BME280;43090;52.604;13.318;2023-04-06T13:26:31;101463.09;;;12.01;30.44
57234;BME280;43090;52.604;13.318;2023-04-06T13:28:59;101460.56;;;11.56;35.22
57234;BME280;43090;52.604;13.318;2023-04-06T13:31:26;101447.59;;;11.77;33.53
57234;BME280;43090;52.604;13.318;2023-04-06T13:33:53;101440.28;;;11.94;34.41
57234;BME280;43090;52.604;13.318;2023-04-06T13:36:19;101456.75;;;12.29;31.99
57234;BME280;43090;52.604;13.318;2023-04-06T13:38:46;101451.38;;;11.75;31.99
57234;BME280;43090;52.604;13.318;2023-04-06T13:41:22;101464.25;;;11.41;31.02
57234;BME280;43090;52.604;13.318;2023-04-06T13:43:49;101447.38;;;11.24;30.41
57234;BME280;43090;52.604;13.318;2023-04-06T13:46:16;101433.22;;;11.22;31.68
57234;BME280;43090;52.604;13.318;2023-04-06T13:48:43;101445.44;;;11.70;30.79
57234;BME280;43090;52.604;13.318;2023-04-06T13:51:14;101448.16;;;11.97;32.31
57234;BME280;43090;52.604;13.318;2023-04-06T13:53:41;101426.88;;;11.38;32.57
57234;BME280;43090;52.604;13.318;2023-04-06T13:56:08;101416.53;;;11.60;31.67
57234;BME280;43090;52.604;13.318;2023-04-06T13:58:35;101433.88;;;11.82;31.67
57234;BME280;43090;52.604;13.318;2023-04-06T14:01:07;101434.53;;;12.00;31.94
57234;BME280;43090;52.604;13.318;2023-04-06T14:03:36;101443.34;;;12.02;34.70